Time;durP1;ratioP1;P1;durP2;ratioP2;P2;SDS_P1;SDS_P2;PMS_P1;PMS_P2;Temp;Humidity;BMP_temperature;BMP_pressure;BME280_temperature;BME280_humidity;BME280_pressure;Samples;Min_cycle;Max_cycle;Signal;HPM_P1;HPM_P2
2021/12/21 00:00:38;;;;;;;12.98;5.03;;;-3.20;99.90;;;;;;5110376;28;20492;-81
2021/12/21 00:03:04;;;;;;;8.48;4.75;;;-3.20;99.90;;;;;;5107532;28;20414;-80
2021/12/21 00:05:30;;;;;;;9.90;4.38;;;-3.20;99.90;;;;;;5107669;28;20427;-82
2021/12/21 00:07:59;;;;;;;10.85;4.75;;;-3.30;99.90;;;;;;5119838;27;20134;-81
2021/12/21 00:10:27;;;;;;;11.13;5.22;;;-3.20;99.90;;;;;;5131520;27;20039;-83
2021/12/21 00:15:25;;;;;;;10.13;4.47;;;-3.20;99.90;;;;;;5109329;27;20096;-81
2021/12/21 00:18:00;;;;;;;8.50;4.50;;;-3.20;99.90;;;;;;5130407;27;20055;-81
2021/12/21 00:20:44;;;;;;;16.83;4.90;;;-3.20;99.90;;;;;;5132158;27;20054;-84
2021/12/21 00:25:54;;;;;;;8.07;5.07;;;-3.30;99.90;;;;;;5115154;27;20530;-82
2021/12/21 00:28:20;;;;;;;14.55;4.85;;;-3.30;99.90;;;;;;5113767;27;20035;-81
2021/12/21 00:30:45;;;;;;;12.70;4.72;;;-3.30;99.90;;;;;;5102523;27;20047;-82
2021/12/21 00:33:11;;;;;;;12.15;4.75;;;-3.40;99.90;;;;;;5095861;27;20059;-81
2021/12/21 00:35:37;;;;;;;11.00;4.57;;;-3.40;99.90;;;;;;5131912;27;20479;-80
2021/12/21 00:38:04;;;;;;;12.35;5.00;;;-3.40;99.90;;;;;;5131664;27;20070;-81
2021/12/21 00:40:31;;;;;;;12.38;5.03;;;-3.40;99.90;;;;;;5114524;27;20050;-81
2021/12/21 00:42:57;;;;;;;11.57;5.07;;;-3.40;99.90;;;;;;5131519;27;20035;-81
2021/12/21 00:45:23;;;;;;;16.23;4.78;;;-3.50;99.90;;;;;;5106382;28;20089;-80
2021/12/21 00:47:49;;;;;;;13.02;4.93;;;-3.50;99.90;;;;;;5107283;27;20035;-81
2021/12/21 00:50:18;;;;;;;10.88;5.15;;;-3.50;99.90;;;;;;5111162;28;20043;-81
2021/12/21 00:52:50;;;;;;;12.60;4.80;;;-3.50;99.90;;;;;;5104320;27;20058;-80
2021/12/21 00:55:16;;;;;;;12.75;4.53;;;-3.50;99.90;;;;;;5131750;27;20055;-81
2021/12/21 00:57:41;;;;;;;7.82;3.83;;;-3.50;99.90;;;;;;5130717;27;20091;-81
2021/12/21 01:00:10;;;;;;;11.30;4.63;;;-3.50;99.90;;;;;;5132061;27;20504;-81
2021/12/21 01:02:36;;;;;;;10.27;4.75;;;-3.50;99.90;;;;;;5130677;27;20169;-81
2021/12/21 01:05:04;;;;;;;11.90;4.82;;;-3.50;99.90;;;;;;5092483;28;20052;-80
2021/12/21 01:07:37;;;;;;;14.25;4.15;;;-3.50;99.90;;;;;;5114235;27;20046;-83
2021/12/21 01:12:57;;;;;;;9.65;4.20;;;-3.70;99.90;;;;;;5108016;27;20073;-80
2021/12/21 01:18:04;;;;;;;14.00;4.88;;;-3.70;99.90;;;;;;5118539;27;20035;-80
2021/12/21 01:25:33;;;;;;;8.85;4.80;;;-3.80;99.90;;;;;;5108725;27;20639;-81
2021/12/21 01:28:09;;;;;;;11.15;4.43;;;-3.80;99.90;;;;;;5103635;27;20046;-81
2021/12/21 01:30:51;;;;;;;9.68;4.18;;;-3.80;99.90;;;;;;5117082;27;20078;-85
2021/12/21 01:36:04;;;;;;;12.65;4.03;;;-3.80;99.90;;;;;;5134872;27;20081;-80
2021/12/21 01:38:49;;;;;;;8.15;4.00;;;-3.90;99.90;;;;;;5117582;27;20129;-81
2021/12/21 01:51:58;;;;;;;9.93;4.65;;;-3.80;99.90;;;;;;5102723;27;20043;-80
2021/12/21 01:54:26;;;;;;;12.55;5.10;;;-3.90;99.90;;;;;;5112961;27;20045;-81
2021/12/21 01:56:52;;;;;;;10.05;5.07;;;-3.90;99.90;;;;;;5128337;27;20039;-80
2021/12/21 01:59:18;;;;;;;12.77;6.25;;;-3.90;99.90;;;;;;5134036;27;20058;-80
2021/12/21 02:01:44;;;;;;;11.63;6.10;;;-3.90;99.90;;;;;;5115709;27;20043;-81
2021/12/21 02:04:14;;;;;;;11.23;5.93;;;-3.90;99.90;;;;;;5117840;27;20046;-83
2021/12/21 02:06:40;;;;;;;9.80;5.30;;;-3.90;99.90;;;;;;5096969;27;20043;-84
2021/12/21 02:09:06;;;;;;;11.93;5.20;;;-3.90;99.90;;;;;;5114924;27;20121;-80
2021/12/21 02:11:31;;;;;;;11.85;5.10;;;-3.90;99.90;;;;;;5116712;27;20047;-80
2021/12/21 02:13:57;;;;;;;10.98;5.30;;;-3.90;99.90;;;;;;5090652;27;20146;-82
2021/12/21 02:16:39;;;;;;;12.95;4.93;;;-3.90;99.90;;;;;;5111847;27;20492;-81
2021/12/21 02:19:16;;;;;;;11.48;5.15;;;-3.90;99.90;;;;;;5116293;27;20046;-81
2021/12/21 02:21:47;;;;;;;9.98;5.05;;;-3.90;99.90;;;;;;5114053;27;20502;-84
2021/12/21 02:24:18;;;;;;;10.98;4.88;;;-3.90;99.90;;;;;;5093173;27;20047;-81
2021/12/21 02:29:32;;;;;;;9.55;3.97;;;-3.90;99.90;;;;;;5132998;27;20092;-81
2021/12/21 02:31:58;;;;;;;7.95;4.07;;;-3.90;99.90;;;;;;5133552;27;20047;-81
2021/12/21 02:34:25;;;;;;;8.30;4.30;;;-3.90;99.90;;;;;;5108365;27;20073;-81
2021/12/21 02:36:53;;;;;;;11.60;4.25;;;-3.90;99.90;;;;;;5102105;27;20067;-82
2021/12/21 02:39:20;;;;;;;11.48;4.55;;;-3.90;99.90;;;;;;5117002;27;20054;-80
2021/12/21 02:41:47;;;;;;;9.95;4.75;;;-3.90;99.90;;;;;;5133400;27;20159;-85
2021/12/21 02:44:14;;;;;;;8.95;4.28;;;-3.90;99.90;;;;;;5133958;27;20091;-81
2021/12/21 02:46:40;;;;;;;9.73;4.05;;;-3.90;99.90;;;;;;5113672;27;20057;-81
2021/12/21 02:49:07;;;;;;;8.23;3.80;;;-3.90;99.90;;;;;;5128451;27;20039;-82
2021/12/21 02:51:33;;;;;;;8.80;3.83;;;-3.80;99.90;;;;;;5115346;27;20042;-81
2021/12/21 02:53:59;;;;;;;7.05;3.58;;;-3.90;99.90;;;;;;5085929;27;20046;-82
2021/12/21 02:56:24;;;;;;;7.63;4.85;;;-3.90;99.90;;;;;;5129951;27;20491;-82
2021/12/21 02:58:50;;;;;;;11.07;3.60;;;-3.90;99.90;;;;;;5114566;27;20058;-86
2021/12/21 03:01:16;;;;;;;7.35;3.47;;;-4.00;99.90;;;;;;5116962;27;20100;-81
2021/12/21 03:03:42;;;;;;;7.82;3.45;;;-4.00;99.90;;;;;;5133165;27;20038;-81
2021/12/21 03:06:14;;;;;;;8.93;4.65;;;-4.00;99.90;;;;;;5114448;27;20066;-81
2021/12/21 03:08:45;;;;;;;9.50;3.85;;;-4.00;99.90;;;;;;5134110;27;20057;-81
2021/12/21 03:11:24;;;;;;;7.70;3.55;;;-4.00;99.90;;;;;;5133723;27;20467;-80
2021/12/21 03:14:08;;;;;;;9.48;3.38;;;-4.00;99.90;;;;;;5109217;28;20396;-85
2021/12/21 03:16:35;;;;;;;8.95;3.20;;;-3.90;99.90;;;;;;5097905;27;20069;-81
2021/12/21 03:19:03;;;;;;;8.20;3.35;;;-4.00;99.90;;;;;;5109805;27;20408;-81
2021/12/21 03:21:29;;;;;;;10.60;3.65;;;-4.10;99.90;;;;;;5134249;27;20396;-80
2021/12/21 03:23:55;;;;;;;8.27;4.18;;;-4.10;99.90;;;;;;5113137;28;20051;-82
2021/12/21 03:26:21;;;;;;;6.13;3.15;;;-4.20;99.90;;;;;;5083736;28;20036;-81
2021/12/21 03:28:47;;;;;;;8.15;3.45;;;-4.20;99.90;;;;;;5085748;27;20046;-81
2021/12/21 03:31:13;;;;;;;7.78;3.38;;;-4.20;99.90;;;;;;5130820;27;20043;-81
2021/12/21 03:33:39;;;;;;;8.48;3.40;;;-4.20;99.90;;;;;;5118180;27;20090;-81
2021/12/21 03:36:05;;;;;;;9.55;3.20;;;-4.20;99.90;;;;;;5083635;27;20043;-81
2021/12/21 03:38:32;;;;;;;6.95;3.38;;;-4.20;99.90;;;;;;5119977;27;20372;-82
2021/12/21 03:41:09;;;;;;;7.95;3.80;;;-4.20;99.90;;;;;;5136940;27;20038;-83
2021/12/21 03:43:35;;;;;;;7.03;3.60;;;-4.30;99.90;;;;;;5119581;27;20047;-81
2021/12/21 03:46:09;;;;;;;12.30;3.60;;;-4.30;99.90;;;;;;5116676;27;20061;-81
2021/12/21 03:48:36;;;;;;;10.07;3.63;;;-4.20;99.90;;;;;;5105494;27;20082;-82
2021/12/21 03:51:02;;;;;;;5.47;3.08;;;-4.20;99.90;;;;;;5117771;27;20125;-81
2021/12/21 03:53:28;;;;;;;6.60;3.40;;;-4.20;99.90;;;;;;5115269;27;20171;-82
2021/12/21 03:56:09;;;;;;;6.35;3.65;;;-4.20;99.90;;;;;;5118096;27;20129;-83
2021/12/21 03:58:35;;;;;;;17.55;4.70;;;-4.20;99.90;;;;;;5110340;27;20105;-82
2021/12/21 04:01:01;;;;;;;14.73;6.07;;;-4.20;99.90;;;;;;5101359;27;20389;-83
2021/12/21 04:03:27;;;;;;;17.92;7.40;;;-4.20;99.90;;;;;;5134345;27;20039;-82
2021/12/21 04:05:52;;;;;;;20.48;8.70;;;-4.20;99.90;;;;;;5116512;27;20149;-80
2021/12/21 04:08:18;;;;;;;19.30;10.07;;;-4.20;99.90;;;;;;5133432;27;20051;-81
2021/12/21 04:10:44;;;;;;;24.13;11.00;;;-4.20;99.90;;;;;;5133291;27;20057;-84
2021/12/21 04:13:10;;;;;;;24.02;9.05;;;-4.20;99.90;;;;;;5115611;27;20046;-81
2021/12/21 04:15:43;;;;;;;21.15;9.35;;;-4.30;99.90;;;;;;5079936;28;20046;-81
2021/12/21 04:18:16;;;;;;;21.17;8.98;;;-4.30;99.90;;;;;;5114464;27;20058;-83
2021/12/21 04:20:42;;;;;;;19.98;7.85;;;-4.30;99.90;;;;;;5133310;27;20491;-81
2021/12/21 04:23:08;;;;;;;16.88;8.18;;;-4.30;99.90;;;;;;5116198;27;20130;-81
2021/12/21 04:25:34;;;;;;;17.98;8.52;;;-4.30;99.90;;;;;;5113201;28;20412;-81
2021/12/21 04:28:00;;;;;;;23.83;8.48;;;-4.30;99.90;;;;;;5119231;27;20090;-81
2021/12/21 04:30:26;;;;;;;18.60;8.18;;;-4.30;99.90;;;;;;5115113;27;20100;-81
2021/12/21 04:32:52;;;;;;;13.95;7.50;;;-4.30;99.90;;;;;;5114453;27;20481;-80
2021/12/21 04:35:20;;;;;;;14.48;6.68;;;-4.30;99.90;;;;;;5093343;28;20485;-82
2021/12/21 04:37:56;;;;;;;10.70;6.00;;;-4.40;99.90;;;;;;5122226;27;20060;-81
2021/12/21 04:40:26;;;;;;;10.23;5.25;;;-4.40;99.90;;;;;;5126603;27;20043;-81
2021/12/21 04:42:52;;;;;;;11.23;5.57;;;-4.40;99.90;;;;;;5133423;27;20047;-81
2021/12/21 04:45:18;;;;;;;9.55;5.22;;;-4.40;99.90;;;;;;5097378;27;20051;-81
2021/12/21 04:47:43;;;;;;;14.65;5.40;;;-4.40;99.90;;;;;;5094030;27;20167;-81
2021/12/21 04:50:09;;;;;;;12.93;5.20;;;-4.40;99.90;;;;;;5092571;27;20544;-81
2021/12/21 04:52:35;;;;;;;7.95;4.50;;;-4.40;99.90;;;;;;5116272;27;20150;-83
2021/12/21 04:55:01;;;;;;;10.32;4.70;;;-4.40;99.90;;;;;;5116224;27;20122;-82
2021/12/21 04:57:26;;;;;;;10.27;4.32;;;-4.40;99.90;;;;;;5097127;27;20529;-81
2021/12/21 04:59:52;;;;;;;7.43;4.32;;;-4.40;99.90;;;;;;5115964;27;20051;-81
2021/12/21 05:02:18;;;;;;;11.77;3.83;;;-4.40;99.90;;;;;;5131980;27;20043;-81
2021/12/21 05:04:44;;;;;;;8.50;4.00;;;-4.40;99.90;;;;;;5130898;27;20122;-81
2021/12/21 05:07:10;;;;;;;12.93;4.47;;;-4.40;99.90;;;;;;5119855;27;20051;-85
2021/12/21 05:09:44;;;;;;;8.10;3.92;;;-4.50;99.90;;;;;;5132810;27;20121;-81
2021/12/21 05:12:12;;;;;;;5.63;3.30;;;-4.50;99.90;;;;;;5090897;28;20412;-84
2021/12/21 05:14:38;;;;;;;7.93;3.50;;;-4.60;99.90;;;;;;5115307;27;20039;-81
2021/12/21 05:17:05;;;;;;;8.88;3.10;;;-4.60;99.90;;;;;;5132660;27;20058;-83
2021/12/21 05:19:32;;;;;;;6.72;3.15;;;-4.60;99.90;;;;;;5132281;27;20635;-82
2021/12/21 05:21:57;;;;;;;6.30;3.33;;;-4.60;99.90;;;;;;5108304;27;20449;-81
2021/12/21 05:24:23;;;;;;;10.77;3.80;;;-4.60;99.90;;;;;;5095049;28;20080;-81
2021/12/21 05:26:49;;;;;;;10.38;4.15;;;-4.60;99.90;;;;;;5116886;27;20095;-82
2021/12/21 05:29:15;;;;;;;9.20;3.60;;;-4.60;99.90;;;;;;5115167;27;20047;-81
2021/12/21 05:31:40;;;;;;;8.50;4.32;;;-4.60;99.90;;;;;;5115707;27;20392;-81
2021/12/21 05:34:06;;;;;;;8.07;3.70;;;-4.60;99.90;;;;;;5072845;28;20439;-81
2021/12/21 05:36:32;;;;;;;7.63;4.07;;;-4.60;99.90;;;;;;5095100;28;20481;-82
2021/12/21 05:39:02;;;;;;;10.38;3.85;;;-4.60;99.90;;;;;;5115382;27;20039;-81
2021/12/21 05:41:45;;;;;;;8.85;3.40;;;-4.60;99.90;;;;;;5131032;27;20439;-81
2021/12/21 05:44:11;;;;;;;6.22;3.20;;;-4.60;99.90;;;;;;5131694;27;20058;-82
2021/12/21 05:46:37;;;;;;;8.43;3.33;;;-4.60;99.90;;;;;;5126080;27;20047;-81
2021/12/21 05:49:02;;;;;;;7.03;3.38;;;-4.60;99.90;;;;;;5112051;28;20126;-81
2021/12/21 05:51:28;;;;;;;8.05;4.07;;;-4.60;99.90;;;;;;5109339;27;20051;-82
2021/12/21 05:53:54;;;;;;;7.93;3.78;;;-4.60;99.90;;;;;;5125914;27;20456;-84
2021/12/21 05:56:20;;;;;;;8.40;3.25;;;-4.60;99.90;;;;;;5109548;28;20049;-81
2021/12/21 05:58:45;;;;;;;9.50;3.75;;;-4.70;99.90;;;;;;5072266;28;20043;-81
2021/12/21 06:01:12;;;;;;;6.43;4.07;;;-4.60;99.90;;;;;;5088997;27;20095;-81
2021/12/21 06:03:38;;;;;;;7.93;3.17;;;-4.60;99.90;;;;;;5130729;27;20089;-81
2021/12/21 06:06:03;;;;;;;14.07;3.72;;;-4.70;99.90;;;;;;5131541;27;20391;-81
2021/12/21 06:08:29;;;;;;;11.30;3.53;;;-4.70;99.90;;;;;;5130310;27;20377;-81
2021/12/21 06:10:56;;;;;;;11.23;3.22;;;-4.70;99.90;;;;;;5125267;27;20084;-79
2021/12/21 06:27:14;;;;;;;7.97;4.28;;;-4.80;99.90;;;;;;5112439;27;20099;-81
2021/12/21 06:29:41;;;;;;;6.75;4.07;;;-4.80;99.90;;;;;;5119501;27;20724;-78
2021/12/21 06:32:08;;;;;;;8.60;3.85;;;-4.80;99.90;;;;;;5111519;27;20054;-83
2021/12/21 06:34:33;;;;;;;8.57;4.20;;;-4.80;99.90;;;;;;5088363;27;20043;-81
2021/12/21 06:36:59;;;;;;;8.25;4.55;;;-4.80;99.90;;;;;;5125386;27;20047;-81
2021/12/21 06:39:28;;;;;;;8.00;4.45;;;-4.80;99.90;;;;;;5127002;27;20385;-82
2021/12/21 06:41:54;;;;;;;8.50;4.72;;;-4.80;99.90;;;;;;5129120;27;20043;-81
2021/12/21 06:44:20;;;;;;;9.05;5.07;;;-4.80;99.90;;;;;;5120565;27;20035;-82
2021/12/21 06:52:12;;;;;;;9.65;5.07;;;-4.80;99.90;;;;;;5077116;27;20056;-80
2021/12/21 06:54:38;;;;;;;9.57;5.45;;;-4.80;99.90;;;;;;5112061;27;20043;-78
2021/12/21 06:57:04;;;;;;;9.23;5.35;;;-4.80;99.90;;;;;;5106864;28;20124;-81
2021/12/21 06:59:30;;;;;;;11.45;6.10;;;-4.80;99.90;;;;;;5099881;28;20051;-83
2021/12/21 07:01:56;;;;;;;12.48;6.25;;;-4.80;99.90;;;;;;5110951;27;20050;-81
2021/12/21 07:04:22;;;;;;;8.93;5.45;;;-4.80;99.90;;;;;;5107814;28;20043;-81
2021/12/21 07:06:48;;;;;;;11.15;6.72;;;-4.70;99.90;;;;;;5107884;28;20134;-80
2021/12/21 07:11:44;;;;;;;18.33;7.47;;;-4.70;99.90;;;;;;5092302;28;20051;-80
2021/12/21 07:19:41;;;;;;;11.40;6.47;;;-4.70;99.90;;;;;;5108826;28;20055;-81
2021/12/21 07:22:07;;;;;;;14.27;6.82;;;-4.70;99.90;;;;;;5092322;28;20469;-81
2021/12/21 07:24:33;;;;;;;15.93;7.05;;;-4.70;99.90;;;;;;5092216;28;20044;-81
2021/12/21 07:26:59;;;;;;;17.30;7.40;;;-4.70;99.90;;;;;;5110669;28;20047;-81
2021/12/21 07:29:25;;;;;;;11.30;6.80;;;-4.80;99.90;;;;;;5112399;28;20552;-81
2021/12/21 07:31:51;;;;;;;17.27;8.02;;;-4.70;99.90;;;;;;5099314;28;20062;-78
2021/12/21 07:34:16;;;;;;;14.82;7.18;;;-4.80;99.90;;;;;;5120713;28;20044;-80
2021/12/21 07:36:45;;;;;;;17.48;8.55;;;-4.80;99.90;;;;;;5105667;28;20499;-80
2021/12/21 07:39:13;;;;;;;15.10;8.48;;;-4.80;99.90;;;;;;5102116;28;20173;-80
2021/12/21 07:41:40;;;;;;;13.88;8.73;;;-4.80;99.90;;;;;;5121312;28;20498;-80
2021/12/21 07:44:06;;;;;;;17.10;9.38;;;-4.90;99.90;;;;;;5110969;28;20043;-81
2021/12/21 07:46:32;;;;;;;20.50;10.82;;;-4.90;99.90;;;;;;5089634;28;20511;-85
2021/12/21 07:48:58;;;;;;;20.98;11.60;;;-4.90;99.90;;;;;;5090847;28;20042;-80
2021/12/21 07:51:24;;;;;;;22.30;8.90;;;-4.80;99.90;;;;;;5111990;28;20051;-80
2021/12/21 07:53:50;;;;;;;16.83;8.93;;;-4.90;99.90;;;;;;5106012;28;20051;-79
2021/12/21 07:56:17;;;;;;;30.33;12.80;;;-4.80;99.90;;;;;;5111869;28;20051;-80
2021/12/21 07:58:45;;;;;;;22.65;10.70;;;-4.90;99.90;;;;;;5109259;28;20042;-80
2021/12/21 08:01:11;;;;;;;15.55;8.40;;;-4.90;99.90;;;;;;5115280;28;20062;-80
2021/12/21 08:03:38;;;;;;;17.02;8.07;;;-5.00;99.90;;;;;;5108196;28;20475;-80
2021/12/21 08:06:06;;;;;;;18.02;8.68;;;-5.00;99.90;;;;;;5107086;28;20502;-79
2021/12/21 08:08:34;;;;;;;19.27;8.10;;;-4.90;99.90;;;;;;5127621;28;20047;-84
2021/12/21 08:13:47;;;;;;;29.17;12.52;;;-4.80;99.90;;;;;;5105743;27;20047;-80
2021/12/21 08:16:13;;;;;;;26.83;13.77;;;-4.90;99.90;;;;;;5080315;27;20039;-79
2021/12/21 08:18:39;;;;;;;32.42;15.65;;;-4.90;99.90;;;;;;5090250;27;20407;-80
2021/12/21 08:21:06;;;;;;;26.95;14.88;;;-4.80;99.90;;;;;;5119310;27;20051;-81
2021/12/21 08:23:32;;;;;;;25.65;13.18;;;-4.80;99.90;;;;;;5128667;27;20039;-79
2021/12/21 08:25:58;;;;;;;24.60;12.80;;;-4.70;99.90;;;;;;5133208;27;20042;-81
2021/12/21 08:28:24;;;;;;;25.20;11.75;;;-4.70;99.90;;;;;;5114503;27;20047;-80
2021/12/21 08:30:50;;;;;;;24.92;12.00;;;-4.70;99.90;;;;;;5115363;27;20043;-81
2021/12/21 08:33:17;;;;;;;24.88;12.75;;;-4.70;99.90;;;;;;5095622;28;20502;-81
2021/12/21 08:35:44;;;;;;;21.30;11.10;;;-4.70;99.90;;;;;;5128085;27;20069;-81
2021/12/21 08:38:14;;;;;;;18.20;10.38;;;-4.70;99.90;;;;;;5081905;28;20054;-80
2021/12/21 08:40:41;;;;;;;15.10;9.43;;;-4.60;99.90;;;;;;5128696;27;20769;-80
2021/12/21 08:43:10;;;;;;;23.08;10.60;;;-4.60;99.90;;;;;;5099626;27;20051;-80
2021/12/21 08:45:38;;;;;;;19.77;10.10;;;-4.50;99.90;;;;;;5116081;27;20058;-80
2021/12/21 08:48:05;;;;;;;15.23;8.88;;;-4.40;99.90;;;;;;5131660;27;20085;-81
2021/12/21 08:50:32;;;;;;;16.60;8.85;;;-4.30;99.90;;;;;;5115740;27;20075;-81
2021/12/21 08:52:58;;;;;;;18.00;8.95;;;-4.30;99.90;;;;;;5115552;27;20089;-80
2021/12/21 08:55:24;;;;;;;15.32;8.10;;;-4.30;99.90;;;;;;5099158;27;20054;-81
2021/12/21 08:57:50;;;;;;;15.50;7.97;;;-4.20;99.90;;;;;;5087448;28;20050;-80
2021/12/21 09:00:17;;;;;;;15.93;7.43;;;-4.20;99.90;;;;;;5108063;27;20096;-81
2021/12/21 09:02:43;;;;;;;15.93;8.57;;;-4.20;99.90;;;;;;5132655;27;20502;-81
2021/12/21 09:05:12;;;;;;;18.02;8.05;;;-4.00;99.90;;;;;;5115620;27;20057;-80
2021/12/21 09:07:39;;;;;;;20.85;8.27;;;-4.00;99.90;;;;;;5112276;27;20055;-80
2021/12/21 09:10:06;;;;;;;15.98;8.30;;;-3.90;99.90;;;;;;5115601;27;20086;-81
2021/12/21 09:12:33;;;;;;;18.13;8.85;;;-3.90;99.90;;;;;;5112485;27;20043;-80
2021/12/21 09:14:58;;;;;;;17.23;8.15;;;-3.80;99.90;;;;;;5131871;27;20419;-81
2021/12/21 09:17:24;;;;;;;19.90;8.80;;;-3.80;99.90;;;;;;5127741;27;20031;-82
2021/12/21 09:19:51;;;;;;;17.17;8.77;;;-3.70;99.90;;;;;;5132124;27;20046;-81
2021/12/21 09:22:16;;;;;;;15.75;8.52;;;-3.60;99.90;;;;;;5094206;28;20036;-81
2021/12/21 09:24:42;;;;;;;20.33;8.90;;;-3.50;99.90;;;;;;5106032;27;20177;-84
2021/12/21 09:27:08;;;;;;;21.88;11.70;;;-3.50;99.90;;;;;;5111101;27;20039;-80
2021/12/21 09:29:34;;;;;;;26.63;14.15;;;-3.50;99.90;;;;;;5140002;27;20536;-82
2021/12/21 09:31:59;;;;;;;24.98;12.10;;;-3.50;99.90;;;;;;5114817;27;20054;-80
2021/12/21 09:34:25;;;;;;;29.35;12.57;;;-3.40;99.90;;;;;;5094443;28;20050;-80
2021/12/21 09:36:52;;;;;;;25.75;12.95;;;-3.40;99.90;;;;;;5098826;27;20054;-80
2021/12/21 09:39:18;;;;;;;25.65;13.20;;;-3.30;99.90;;;;;;5112354;27;20575;-81
2021/12/21 09:41:45;;;;;;;24.55;12.05;;;-3.40;99.90;;;;;;5130783;27;20070;-86
2021/12/21 09:44:11;;;;;;;20.65;11.52;;;-3.30;99.90;;;;;;5113947;27;20104;-80
2021/12/21 09:46:37;;;;;;;24.33;12.38;;;-3.30;99.90;;;;;;5094061;27;20042;-79
2021/12/21 09:49:04;;;;;;;30.15;13.25;;;-3.20;99.90;;;;;;5112781;27;20043;-81
2021/12/21 09:51:29;;;;;;;32.05;16.13;;;-3.10;99.90;;;;;;5122897;27;20039;-79
2021/12/21 09:53:56;;;;;;;28.15;14.90;;;-3.00;99.90;;;;;;5106702;28;20715;-82
2021/12/21 09:56:22;;;;;;;28.90;15.45;;;-2.90;99.90;;;;;;5091061;28;20430;-80
2021/12/21 09:58:49;;;;;;;32.35;15.52;;;-2.90;99.90;;;;;;5116855;27;20043;-83
2021/12/21 10:01:18;;;;;;;30.58;15.93;;;-2.80;99.90;;;;;;5120628;27;20044;-80
2021/12/21 10:03:44;;;;;;;42.03;16.27;;;-2.70;99.90;;;;;;5097519;27;20753;-81
2021/12/21 10:06:11;;;;;;;33.30;15.38;;;-2.60;99.90;;;;;;5132062;27;20086;-81
2021/12/21 10:08:38;;;;;;;39.78;16.15;;;-2.40;99.90;;;;;;5118011;27;20078;-80
2021/12/21 10:11:06;;;;;;;34.38;15.68;;;-2.30;99.90;;;;;;5117765;27;20054;-80
2021/12/21 10:13:35;;;;;;;30.60;15.45;;;-2.20;99.90;;;;;;5081566;27;20047;-80
2021/12/21 10:16:03;;;;;;;29.55;14.98;;;-2.10;99.90;;;;;;5117890;27;20050;-80
2021/12/21 10:18:34;;;;;;;30.30;13.85;;;-2.00;99.90;;;;;;5118571;27;20099;-80
2021/12/21 10:21:03;;;;;;;27.73;14.10;;;-1.80;99.90;;;;;;5117713;27;20593;-81
2021/12/21 10:23:34;;;;;;;28.90;15.05;;;-1.70;99.90;;;;;;5114373;27;20037;-80
2021/12/21 10:26:09;;;;;;;25.45;13.13;;;-1.60;99.90;;;;;;5122107;27;20047;-81
2021/12/21 10:28:47;;;;;;;30.98;12.90;;;-1.50;99.90;;;;;;5112351;27;20051;-80
2021/12/21 10:31:14;;;;;;;22.60;12.27;;;-1.40;99.90;;;;;;5134083;27;20369;-80
2021/12/21 10:33:45;;;;;;;27.48;12.45;;;-1.40;99.90;;;;;;5133079;27;20039;-80
2021/12/21 10:36:12;;;;;;;25.27;13.52;;;-1.30;99.90;;;;;;5132941;27;20031;-80
2021/12/21 10:38:49;;;;;;;27.42;12.45;;;-1.10;99.90;;;;;;5118405;27;20042;-80
2021/12/21 10:41:26;;;;;;;20.42;12.10;;;-1.00;99.90;;;;;;5134702;27;20130;-82
2021/12/21 10:44:02;;;;;;;28.13;12.68;;;-0.90;99.90;;;;;;5130966;27;20046;-86
2021/12/21 10:46:32;;;;;;;29.35;12.20;;;-0.90;99.90;;;;;;5134294;27;20125;-79
2021/12/21 10:49:13;;;;;;;33.67;12.35;;;-0.80;99.90;;;;;;5133516;27;20027;-80
2021/12/21 10:51:54;;;;;;;26.17;11.50;;;-0.80;99.90;;;;;;5125324;27;20035;-80
2021/12/21 10:54:32;;;;;;;30.15;13.07;;;-0.70;99.90;;;;;;5134406;27;20107;-81
2021/12/21 10:57:04;;;;;;;19.30;10.98;;;-0.70;99.90;;;;;;5134695;27;20169;-81
2021/12/21 10:59:33;;;;;;;22.25;11.18;;;-0.60;99.90;;;;;;5123821;27;20041;-81
2021/12/21 11:02:11;;;;;;;23.20;11.32;;;-0.60;99.90;;;;;;5134040;27;20121;-81
2021/12/21 11:04:48;;;;;;;22.45;10.93;;;-0.60;99.90;;;;;;5134649;27;20364;-83
2021/12/21 11:07:38;;;;;;;21.55;10.43;;;-0.60;99.90;;;;;;5116528;27;20097;-81
2021/12/21 11:10:15;;;;;;;22.95;10.85;;;-0.60;99.90;;;;;;5131565;27;20411;-80
2021/12/21 11:12:47;;;;;;;21.73;10.45;;;-0.60;99.90;;;;;;5134497;27;20503;-80
2021/12/21 11:15:19;;;;;;;16.90;9.35;;;-0.50;99.90;;;;;;5117169;27;20050;-79
2021/12/21 11:17:45;;;;;;;25.10;10.65;;;-0.40;99.90;;;;;;5117209;27;20070;-83
2021/12/21 11:20:13;;;;;;;19.95;9.88;;;-0.30;99.90;;;;;;5133163;27;20142;-81
2021/12/21 11:22:42;;;;;;;22.05;10.60;;;-0.20;99.90;;;;;;5134401;27;20042;-81
2021/12/21 11:25:09;;;;;;;16.60;8.55;;;-0.10;99.90;;;;;;5133052;27;20133;-81
2021/12/21 11:27:37;;;;;;;18.70;8.85;;;-0.10;99.90;;;;;;5131942;27;20039;-81
2021/12/21 11:30:09;;;;;;;20.73;8.68;;;-0.10;99.90;;;;;;5133696;27;20079;-80
2021/12/21 11:32:39;;;;;;;16.08;7.93;;;-0.10;99.90;;;;;;5134072;27;20046;-81
2021/12/21 11:37:40;;;;;;;14.50;7.97;;;0.00;99.90;;;;;;5133674;27;20396;-81
2021/12/21 11:40:10;;;;;;;15.52;7.55;;;0.00;99.90;;;;;;5123640;27;20126;-82
2021/12/21 11:42:51;;;;;;;13.82;8.43;;;0.00;99.90;;;;;;5126175;27;20050;-79
2021/12/21 11:45:27;;;;;;;17.50;7.93;;;0.10;99.90;;;;;;5128928;27;20045;-80
2021/12/21 11:48:11;;;;;;;17.85;7.75;;;0.10;99.90;;;;;;5131002;27;20039;-83
2021/12/21 11:50:44;;;;;;;14.75;7.55;;;0.10;99.90;;;;;;5136346;27;20046;-82
2021/12/21 11:53:13;;;;;;;13.43;7.47;;;0.10;99.90;;;;;;5135740;27;20051;-81
2021/12/21 11:55:42;;;;;;;16.02;7.15;;;0.10;99.90;;;;;;5131157;27;20108;-81
2021/12/21 11:58:24;;;;;;;13.55;6.95;;;0.20;99.90;;;;;;5130990;27;20134;-81
2021/12/21 12:00:56;;;;;;;11.60;6.32;;;0.20;99.90;;;;;;5142474;27;20577;-80
2021/12/21 12:03:24;;;;;;;14.23;7.07;;;0.30;99.90;;;;;;5116363;27;20050;-80
2021/12/21 12:06:06;;;;;;;14.25;7.05;;;0.30;99.90;;;;;;5126713;27;20050;-81
2021/12/21 12:09:03;;;;;;;17.23;6.90;;;0.30;99.90;;;;;;5112020;27;20057;-82
2021/12/21 12:11:36;;;;;;;16.10;6.75;;;0.40;99.90;;;;;;5119303;27;20047;-80
2021/12/21 12:14:14;;;;;;;16.08;6.90;;;0.40;99.90;;;;;;5132636;27;20505;-78
2021/12/21 12:16:50;;;;;;;13.85;6.93;;;0.40;99.90;;;;;;5134831;27;20046;-81
2021/12/21 12:19:21;;;;;;;18.83;7.53;;;0.40;99.90;;;;;;5109788;27;20400;-82
2021/12/21 12:21:53;;;;;;;17.48;6.78;;;0.40;99.90;;;;;;5095063;27;20061;-81
2021/12/21 12:24:20;;;;;;;11.13;6.18;;;0.50;99.90;;;;;;5135215;27;20130;-82
2021/12/21 12:27:00;;;;;;;11.70;7.00;;;0.70;99.90;;;;;;5087125;27;20071;-81
2021/12/21 12:29:26;;;;;;;15.13;6.70;;;0.80;99.90;;;;;;5115202;27;20195;-81
2021/12/21 12:32:00;;;;;;;21.15;7.32;;;0.70;99.90;;;;;;5119739;27;20047;-79
2021/12/21 12:34:29;;;;;;;14.65;7.00;;;0.80;99.90;;;;;;5136932;27;20051;-80
2021/12/21 12:36:55;;;;;;;13.77;7.03;;;0.80;99.90;;;;;;5116936;27;20049;-82
2021/12/21 12:39:30;;;;;;;16.65;7.28;;;0.90;99.90;;;;;;5114965;27;20045;-81
2021/12/21 12:42:29;;;;;;;14.65;7.05;;;0.90;99.90;;;;;;5135417;27;20049;-80
2021/12/21 12:45:18;;;;;;;14.63;7.25;;;0.90;99.90;;;;;;5063049;27;20051;-84
2021/12/21 12:47:47;;;;;;;14.98;7.50;;;0.90;99.90;;;;;;5129485;27;20035;-82
2021/12/21 12:50:28;;;;;;;12.48;6.45;;;0.80;99.90;;;;;;5135242;27;20074;-80
2021/12/21 12:53:04;;;;;;;13.38;7.38;;;1.00;99.90;;;;;;5133803;27;20042;-80
2021/12/21 12:55:52;;;;;;;14.93;7.20;;;1.00;99.90;;;;;;5117487;27;20050;-80
2021/12/21 12:58:22;;;;;;;18.23;7.50;;;1.00;99.90;;;;;;5117930;27;20043;-81
2021/12/21 13:00:54;;;;;;;12.25;6.95;;;1.00;99.90;;;;;;5134286;27;20539;-80
2021/12/21 13:03:21;;;;;;;15.38;8.23;;;1.10;99.90;;;;;;5114504;27;20050;-81
2021/12/21 13:05:52;;;;;;;14.25;6.95;;;1.10;99.90;;;;;;5082059;27;20047;-80
2021/12/21 13:08:22;;;;;;;15.77;7.05;;;1.00;99.90;;;;;;5112658;27;20104;-80
2021/12/21 13:10:54;;;;;;;17.48;7.53;;;1.00;99.90;;;;;;5121551;27;20519;-80
2021/12/21 13:13:20;;;;;;;16.15;7.07;;;1.00;99.90;;;;;;5115840;27;20065;-80
2021/12/21 13:15:51;;;;;;;14.10;7.38;;;1.00;99.90;;;;;;5115149;27;20104;-80
2021/12/21 13:18:19;;;;;;;16.77;7.60;;;1.00;99.90;;;;;;5091278;28;20119;-80
2021/12/21 13:20:48;;;;;;;12.70;7.03;;;1.00;99.90;;;;;;5114990;27;20042;-80
2021/12/21 13:23:18;;;;;;;14.82;7.57;;;1.00;99.90;;;;;;5100214;27;20051;-80
2021/12/21 13:26:02;;;;;;;15.38;7.57;;;1.00;99.90;;;;;;5115068;27;20043;-81
2021/12/21 13:28:35;;;;;;;15.20;6.50;;;1.00;99.90;;;;;;5130561;27;20082;-80
2021/12/21 13:31:06;;;;;;;13.02;5.85;;;1.00;99.90;;;;;;5115298;27;20066;-81
2021/12/21 13:33:32;;;;;;;12.85;6.82;;;1.10;99.90;;;;;;5123636;27;20075;-80
2021/12/21 13:36:03;;;;;;;15.38;6.72;;;1.10;99.90;;;;;;5096836;27;20078;-80
2021/12/21 13:38:30;;;;;;;11.88;6.10;;;1.10;99.90;;;;;;5131368;27;20076;-82
2021/12/21 13:41:16;;;;;;;11.95;6.40;;;1.10;99.90;;;;;;5132144;27;20111;-80
2021/12/21 13:44:11;;;;;;;18.60;6.93;;;1.10;99.90;;;;;;5095119;28;20065;-81
2021/12/21 13:46:37;;;;;;;14.80;6.88;;;1.10;99.90;;;;;;5091664;27;20048;-80
2021/12/21 13:49:02;;;;;;;21.05;7.85;;;1.10;99.90;;;;;;5070405;28;20104;-80
2021/12/21 13:51:28;;;;;;;13.68;6.93;;;1.10;99.90;;;;;;5106606;27;20476;-79